sensor_id;sensor_type;location;lat;lon;timestamp;pressure;altitude;pressure_sealevel;temperature;humidity
72570;BME280;60594;50.204;8.844;2023-07-22T00:01:09;99846.09;;;14.48;100.00
72570;BME280;60594;50.204;8.844;2023-07-22T00:03:36;99846.97;;;14.49;100.00
72570;BME280;60594;50.204;8.844;2023-07-22T00:08:30;99848.31;;;14.53;100.00
72570;BME280;60594;50.204;8.844;2023-07-22T00:10:56;99852.84;;;14.52;100.00
72570;BME280;60594;50.204;8.844;2023-07-22T00:13:23;99854.47;;;14.45;100.00
72570;BME280;60594;50.204;8.844;2023-07-22T00:15:49;99853.63;;;14.45;100.00
72570;BME280;60594;50.204;8.844;2023-07-22T00:18:17;99851.78;;;14.45;100.00
72570;BME280;60594;50.204;8.844;2023-07-22T00:20:43;99851.72;;;14.37;100.00
72570;BME280;60594;50.204;8.844;2023-07-22T00:23:09;99853.25;;;14.40;100.00
72570;BME280;60594;50.204;8.844;2023-07-22T00:25:37;99856.06;;;14.38;100.00
72570;BME280;60594;50.204;8.844;2023-07-22T00:28:03;99856.41;;;14.35;100.00
72570;BME280;60594;50.204;8.844;2023-07-22T00:30:33;99864.59;;;14.34;100.00
72570;BME280;60594;50.204;8.844;2023-07-22T00:33:01;99857.00;;;14.29;100.00
72570;BME280;60594;50.204;8.844;2023-07-22T00:35:27;99857.31;;;14.26;100.00
72570;BME280;60594;50.204;8.844;2023-07-22T00:37:54;99859.69;;;14.12;100.00
72570;BME280;60594;50.204;8.844;2023-07-22T00:40:20;99853.16;;;14.14;100.00
72570;BME280;60594;50.204;8.844;2023-07-22T00:42:47;99855.84;;;14.14;100.00
72570;BME280;60594;50.204;8.844;2023-07-22T00:45:14;99856.00;;;14.13;100.00
72570;BME280;60594;50.204;8.844;2023-07-22T00:47:40;99858.84;;;14.11;100.00
72570;BME280;60594;50.204;8.844;2023-07-22T00:50:08;99856.22;;;14.02;100.00
72570;BME280;60594;50.204;8.844;2023-07-22T00:52:34;99860.66;;;13.93;100.00
72570;BME280;60594;50.204;8.844;2023-07-22T00:55:02;99860.44;;;13.87;100.00
72570;BME280;60594;50.204;8.844;2023-07-22T00:57:31;99862.75;;;13.82;100.00
72570;BME280;60594;50.204;8.844;2023-07-22T00:59:57;99857.13;;;13.75;100.00
72570;BME280;60594;50.204;8.844;2023-07-22T01:02:24;99867.06;;;13.65;100.00
72570;BME280;60594;50.204;8.844;2023-07-22T01:04:51;99861.53;;;13.66;100.00
72570;BME280;60594;50.204;8.844;2023-07-22T01:07:18;99857.28;;;13.73;100.00
72570;BME280;60594;50.204;8.844;2023-07-22T01:09:45;99862.31;;;13.77;100.00
72570;BME280;60594;50.204;8.844;2023-07-22T01:12:12;99853.84;;;13.81;100.00
72570;BME280;60594;50.204;8.844;2023-07-22T01:14:41;99855.53;;;13.82;100.00
72570;BME280;60594;50.204;8.844;2023-07-22T01:17:08;99849.50;;;13.80;100.00
72570;BME280;60594;50.204;8.844;2023-07-22T01:19:35;99847.63;;;13.81;100.00
72570;BME280;60594;50.204;8.844;2023-07-22T01:22:04;99850.31;;;13.81;100.00
72570;BME280;60594;50.204;8.844;2023-07-22T01:24:32;99853.13;;;13.79;100.00
72570;BME280;60594;50.204;8.844;2023-07-22T01:26:58;99845.59;;;13.75;100.00
72570;BME280;60594;50.204;8.844;2023-07-22T01:29:25;99846.25;;;13.77;100.00
72570;BME280;60594;50.204;8.844;2023-07-22T01:31:54;99846.25;;;13.77;100.00
72570;BME280;60594;50.204;8.844;2023-07-22T01:34:21;99843.19;;;13.72;100.00
72570;BME280;60594;50.204;8.844;2023-07-22T01:36:49;99852.84;;;13.64;100.00
72570;BME280;60594;50.204;8.844;2023-07-22T01:39:16;99856.75;;;13.70;100.00
72570;BME280;60594;50.204;8.844;2023-07-22T01:41:43;99859.41;;;13.70;100.00
72570;BME280;60594;50.204;8.844;2023-07-22T01:44:09;99856.03;;;13.68;100.00
72570;BME280;60594;50.204;8.844;2023-07-22T01:46:37;99857.03;;;13.67;100.00
72570;BME280;60594;50.204;8.844;2023-07-22T01:49:05;99855.38;;;13.66;100.00
72570;BME280;60594;50.204;8.844;2023-07-22T01:51:31;99861.00;;;13.63;100.00
72570;BME280;60594;50.204;8.844;2023-07-22T01:53:58;99867.22;;;13.63;100.00
72570;BME280;60594;50.204;8.844;2023-07-22T01:56:25;99861.75;;;13.55;100.00
72570;BME280;60594;50.204;8.844;2023-07-22T01:58:51;99857.69;;;13.51;100.00
72570;BME280;60594;50.204;8.844;2023-07-22T02:01:18;99863.38;;;13.48;100.00
72570;BME280;60594;50.204;8.844;2023-07-22T02:03:44;99863.50;;;13.47;100.00
72570;BME280;60594;50.204;8.844;2023-07-22T02:06:12;99864.25;;;13.39;100.00
72570;BME280;60594;50.204;8.844;2023-07-22T02:08:39;99862.72;;;13.37;100.00
72570;BME280;60594;50.204;8.844;2023-07-22T02:11:07;99861.72;;;13.38;100.00
72570;BME280;60594;50.204;8.844;2023-07-22T02:13:35;99862.41;;;13.40;100.00
72570;BME280;60594;50.204;8.844;2023-07-22T02:16:02;99861.72;;;13.38;100.00
72570;BME280;60594;50.204;8.844;2023-07-22T02:18:29;99863.88;;;13.34;100.00
72570;BME280;60594;50.204;8.844;2023-07-22T02:20:57;99867.91;;;13.38;100.00
72570;BME280;60594;50.204;8.844;2023-07-22T02:23:24;99864.09;;;13.41;100.00
72570;BME280;60594;50.204;8.844;2023-07-22T02:25:52;99859.75;;;13.40;100.00
72570;BME280;60594;50.204;8.844;2023-07-22T02:28:19;99862.41;;;13.40;100.00
72570;BME280;60594;50.204;8.844;2023-07-22T02:30:48;99860.03;;;13.37;100.00
72570;BME280;60594;50.204;8.844;2023-07-22T02:33:15;99862.47;;;13.30;100.00
72570;BME280;60594;50.204;8.844;2023-07-22T02:35:42;99854.59;;;13.29;100.00
72570;BME280;60594;50.204;8.844;2023-07-22T02:38:08;99856.56;;;13.27;100.00
72570;BME280;60594;50.204;8.844;2023-07-22T02:40:38;99863.59;;;13.28;100.00
72570;BME280;60594;50.204;8.844;2023-07-22T02:43:04;99857.69;;;13.24;100.00
72570;BME280;60594;50.204;8.844;2023-07-22T02:45:33;99854.50;;;13.21;100.00
72570;BME280;60594;50.204;8.844;2023-07-22T02:48:00;99854.78;;;13.18;100.00
72570;BME280;60594;50.204;8.844;2023-07-22T02:50:27;99858.69;;;13.23;100.00
72570;BME280;60594;50.204;8.844;2023-07-22T02:52:53;99857.00;;;13.22;100.00
72570;BME280;60594;50.204;8.844;2023-07-22T02:55:20;99858.00;;;13.21;100.00
72570;BME280;60594;50.204;8.844;2023-07-22T02:57:47;99854.31;;;13.22;100.00
72570;BME280;60594;50.204;8.844;2023-07-22T03:00:16;99867.03;;;13.20;100.00
72570;BME280;60594;50.204;8.844;2023-07-22T03:02:53;99861.66;;;13.20;100.00
72570;BME280;60594;50.204;8.844;2023-07-22T03:05:20;99857.47;;;13.18;100.00
72570;BME280;60594;50.204;8.844;2023-07-22T03:07:47;99861.38;;;13.23;100.00
72570;BME280;60594;50.204;8.844;2023-07-22T03:10:14;99863.06;;;13.24;100.00
72570;BME280;60594;50.204;8.844;2023-07-22T03:12:40;99860.81;;;13.20;100.00
72570;BME280;60594;50.204;8.844;2023-07-22T03:15:07;99867.25;;;13.27;100.00
72570;BME280;60594;50.204;8.844;2023-07-22T03:17:35;99864.59;;;13.27;100.00
72570;BME280;60594;50.204;8.844;2023-07-22T03:20:03;99871.94;;;13.25;100.00
72570;BME280;60594;50.204;8.844;2023-07-22T03:22:34;99875.28;;;13.27;100.00
72570;BME280;60594;50.204;8.844;2023-07-22T03:25:01;99871.63;;;13.28;100.00
72570;BME280;60594;50.204;8.844;2023-07-22T03:27:29;99874.16;;;13.29;100.00
72570;BME280;60594;50.204;8.844;2023-07-22T03:29:55;99876.69;;;13.31;100.00
72570;BME280;60594;50.204;8.844;2023-07-22T03:32:22;99875.16;;;13.28;100.00
72570;BME280;60594;50.204;8.844;2023-07-22T03:34:48;99879.69;;;13.18;100.00
72570;BME280;60594;50.204;8.844;2023-07-22T03:37:15;99876.47;;;13.15;100.00
72570;BME280;60594;50.204;8.844;2023-07-22T03:39:41;99878.31;;;13.14;100.00
72570;BME280;60594;50.204;8.844;2023-07-22T03:42:08;99886.91;;;13.18;100.00
72570;BME280;60594;50.204;8.844;2023-07-22T03:44:35;99889.72;;;13.16;100.00
72570;BME280;60594;50.204;8.844;2023-07-22T03:47:03;99887.66;;;13.01;100.00
72570;BME280;60594;50.204;8.844;2023-07-22T03:49:30;99884.53;;;13.05;100.00
72570;BME280;60594;50.204;8.844;2023-07-22T03:51:57;99886.78;;;13.10;100.00
72570;BME280;60594;50.204;8.844;2023-07-22T03:54:23;99883.78;;;13.13;100.00
72570;BME280;60594;50.204;8.844;2023-07-22T03:56:50;99890.28;;;13.10;100.00
72570;BME280;60594;50.204;8.844;2023-07-22T03:59:16;99889.47;;;13.10;100.00
72570;BME280;60594;50.204;8.844;2023-07-22T04:01:43;99889.03;;;13.05;100.00
72570;BME280;60594;50.204;8.844;2023-07-22T04:04:09;99880.34;;;13.03;100.00
72570;BME280;60594;50.204;8.844;2023-07-22T04:06:36;99892.84;;;13.02;100.00
72570;BME280;60594;50.204;8.844;2023-07-22T04:09:03;99883.16;;;13.01;100.00
72570;BME280;60594;50.204;8.844;2023-07-22T04:11:29;99882.00;;;13.04;100.00
72570;BME280;60594;50.204;8.844;2023-07-22T04:13:56;99875.22;;;13.09;100.00
72570;BME280;60594;50.204;8.844;2023-07-22T04:16:24;99882.53;;;13.17;100.00
72570;BME280;60594;50.204;8.844;2023-07-22T04:18:50;99876.63;;;13.13;100.00
72570;BME280;60594;50.204;8.844;2023-07-22T04:21:17;99874.66;;;13.15;100.00
72570;BME280;60594;50.204;8.844;2023-07-22T04:23:43;99874.94;;;13.12;100.00
72570;BME280;60594;50.204;8.844;2023-07-22T04:26:10;99868.75;;;13.12;100.00
72570;BME280;60594;50.204;8.844;2023-07-22T04:28:37;99875.34;;;13.17;100.00
72570;BME280;60594;50.204;8.844;2023-07-22T04:31:05;99875.91;;;13.21;100.00
72570;BME280;60594;50.204;8.844;2023-07-22T04:33:35;99876.44;;;13.24;100.00
72570;BME280;60594;50.204;8.844;2023-07-22T04:36:02;99886.28;;;13.24;100.00
72570;BME280;60594;50.204;8.844;2023-07-22T04:38:28;99888.97;;;13.24;100.00
72570;BME280;60594;50.204;8.844;2023-07-22T04:40:55;99886.28;;;13.24;100.00
72570;BME280;60594;50.204;8.844;2023-07-22T04:43:21;99882.50;;;13.26;100.00
72570;BME280;60594;50.204;8.844;2023-07-22T04:45:48;99888.38;;;13.30;100.00
72570;BME280;60594;50.204;8.844;2023-07-22T04:48:19;99885.28;;;13.34;100.00
72570;BME280;60594;50.204;8.844;2023-07-22T04:50:46;99886.94;;;13.35;100.00
72570;BME280;60594;50.204;8.844;2023-07-22T04:53:13;99894.53;;;13.40;100.00
72570;BME280;60594;50.204;8.844;2023-07-22T04:55:40;99894.84;;;13.37;100.00
72570;BME280;60594;50.204;8.844;2023-07-22T04:58:07;99899.19;;;13.38;100.00
72570;BME280;60594;50.204;8.844;2023-07-22T05:00:35;99903.69;;;13.01;100.00
72570;BME280;60594;50.204;8.844;2023-07-22T05:03:04;99896.41;;;12.84;100.00
72570;BME280;60594;50.204;8.844;2023-07-22T05:05:31;99900.16;;;12.91;100.00
72570;BME280;60594;50.204;8.844;2023-07-22T05:07:58;99896.38;;;13.03;100.00
72570;BME280;60594;50.204;8.844;2023-07-22T05:10:24;99893.97;;;13.09;100.00
72570;BME280;60594;50.204;8.844;2023-07-22T05:12:51;99901.41;;;13.15;100.00
72570;BME280;60594;50.204;8.844;2023-07-22T05:15:17;99900.81;;;13.21;100.00
72570;BME280;60594;50.204;8.844;2023-07-22T05:17:44;99908.41;;;13.26;100.00
72570;BME280;60594;50.204;8.844;2023-07-22T05:20:10;99897.69;;;13.26;100.00
72570;BME280;60594;50.204;8.844;2023-07-22T05:22:39;99897.81;;;13.34;100.00
72570;BME280;60594;50.204;8.844;2023-07-22T05:25:06;99900.03;;;13.38;100.00
72570;BME280;60594;50.204;8.844;2023-07-22T05:27:33;99893.00;;;13.37;100.00
72570;BME280;60594;50.204;8.844;2023-07-22T05:30:00;99903.81;;;13.45;100.00
72570;BME280;60594;50.204;8.844;2023-07-22T05:32:30;99900.19;;;13.37;100.00
72570;BME280;60594;50.204;8.844;2023-07-22T05:34:56;99908.91;;;13.39;100.00
72570;BME280;60594;50.204;8.844;2023-07-22T05:37:23;99902.38;;;13.51;100.00
72570;BME280;60594;50.204;8.844;2023-07-22T05:39:50;99907.13;;;13.57;100.00
72570;BME280;60594;50.204;8.844;2023-07-22T05:42:18;99912.75;;;13.63;100.00
72570;BME280;60594;50.204;8.844;2023-07-22T05:44:44;99913.13;;;13.68;100.00
72570;BME280;60594;50.204;8.844;2023-07-22T05:47:11;99909.53;;;13.77;100.00
72570;BME280;60594;50.204;8.844;2023-07-22T05:49:37;99913.84;;;13.71;100.00
72570;BME280;60594;50.204;8.844;2023-07-22T05:52:04;99920.84;;;13.54;100.00
72570;BME280;60594;50.204;8.844;2023-07-22T05:54:31;99915.44;;;13.63;100.00
72570;BME280;60594;50.204;8.844;2023-07-22T05:56:57;99923.94;;;13.77;100.00
72570;BME280;60594;50.204;8.844;2023-07-22T05:59:24;99919.44;;;13.77;100.00
72570;BME280;60594;50.204;8.844;2023-07-22T06:01:50;99912.53;;;13.75;100.00
72570;BME280;60594;50.204;8.844;2023-07-22T06:04:17;99917.44;;;13.79;100.00
72570;BME280;60594;50.204;8.844;2023-07-22T06:06:43;99919.53;;;13.58;100.00
72570;BME280;60594;50.204;8.844;2023-07-22T06:09:10;99911.38;;;13.50;100.00
72570;BME280;60594;50.204;8.844;2023-07-22T06:11:37;99909.28;;;13.53;100.00
72570;BME280;60594;50.204;8.844;2023-07-22T06:14:04;99911.91;;;13.63;100.00
72570;BME280;60594;50.204;8.844;2023-07-22T06:16:30;99913.50;;;13.73;100.00
72570;BME280;60594;50.204;8.844;2023-07-22T06:18:57;99917.78;;;13.66;100.00
72570;BME280;60594;50.204;8.844;2023-07-22T06:21:23;99916.91;;;13.76;100.00
72570;BME280;60594;50.204;8.844;2023-07-22T06:23:50;99922.50;;;13.82;100.00
72570;BME280;60594;50.204;8.844;2023-07-22T06:26:17;99910.41;;;13.96;100.00
72570;BME280;60594;50.204;8.844;2023-07-22T06:28:43;99919.53;;;13.85;100.00
72570;BME280;60594;50.204;8.844;2023-07-22T06:31:10;99919.06;;;13.90;100.00
72570;BME280;60594;50.204;8.844;2023-07-22T06:33:36;99919.06;;;13.90;100.00
72570;BME280;60594;50.204;8.844;2023-07-22T06:36:03;99917.00;;;14.01;100.00
72570;BME280;60594;50.204;8.844;2023-07-22T06:38:29;99924.50;;;13.98;100.00
72570;BME280;60594;50.204;8.844;2023-07-22T06:40:56;99925.03;;;14.01;100.00
72570;BME280;60594;50.204;8.844;2023-07-22T06:43:23;99934.16;;;14.08;100.00
72570;BME280;60594;50.204;8.844;2023-07-22T06:45:50;99934.56;;;14.13;100.00
72570;BME280;60594;50.204;8.844;2023-07-22T06:48:16;99925.09;;;14.19;100.00
72570;BME280;60594;50.204;8.844;2023-07-22T06:50:47;99932.38;;;14.26;100.00
72570;BME280;60594;50.204;8.844;2023-07-22T06:53:14;99932.00;;;14.39;100.00
72570;BME280;60594;50.204;8.844;2023-07-22T06:55:52;99930.25;;;14.47;100.00
72570;BME280;60594;50.204;8.844;2023-07-22T06:58:19;99922.97;;;14.57;100.00
72570;BME280;60594;50.204;8.844;2023-07-22T07:00:46;99931.22;;;14.64;100.00
72570;BME280;60594;50.204;8.844;2023-07-22T07:03:12;99934.56;;;14.83;100.00
72570;BME280;60594;50.204;8.844;2023-07-22T07:05:39;99933.63;;;14.92;100.00
72570;BME280;60594;50.204;8.844;2023-07-22T07:08:08;99926.88;;;14.88;100.00
72570;BME280;60594;50.204;8.844;2023-07-22T07:10:37;99929.63;;;14.96;100.00
72570;BME280;60594;50.204;8.844;2023-07-22T07:13:04;99926.47;;;15.01;100.00
72570;BME280;60594;50.204;8.844;2023-07-22T07:15:31;99936.56;;;15.07;100.00
72570;BME280;60594;50.204;8.844;2023-07-22T07:17:57;99925.16;;;15.05;100.00
72570;BME280;60594;50.204;8.844;2023-07-22T07:20:24;99932.19;;;15.06;100.00
72570;BME280;60594;50.204;8.844;2023-07-22T07:22:50;99933.16;;;15.22;100.00
72570;BME280;60594;50.204;8.844;2023-07-22T07:25:17;99938.72;;;15.29;100.00
72570;BME280;60594;50.204;8.844;2023-07-22T07:27:43;99930.59;;;15.38;100.00
72570;BME280;60594;50.204;8.844;2023-07-22T07:30:10;99931.47;;;15.47;100.00
72570;BME280;60594;50.204;8.844;2023-07-22T07:32:37;99926.81;;;15.57;100.00
72570;BME280;60594;50.204;8.844;2023-07-22T07:35:04;99935.78;;;15.73;100.00
72570;BME280;60594;50.204;8.844;2023-07-22T07:37:32;99935.66;;;15.83;100.00
72570;BME280;60594;50.204;8.844;2023-07-22T07:39:59;99932.31;;;15.81;98.35
72570;BME280;60594;50.204;8.844;2023-07-22T07:42:26;99931.78;;;15.85;99.49
72570;BME280;60594;50.204;8.844;2023-07-22T07:44:54;99934.69;;;15.92;100.00
72570;BME280;60594;50.204;8.844;2023-07-22T07:47:20;99931.88;;;16.01;100.00
72570;BME280;60594;50.204;8.844;2023-07-22T07:49:47;99930.38;;;16.07;100.00
72570;BME280;60594;50.204;8.844;2023-07-22T07:52:13;99936.09;;;16.20;100.00
72570;BME280;60594;50.204;8.844;2023-07-22T07:54:41;99923.34;;;16.22;99.52
72570;BME280;60594;50.204;8.844;2023-07-22T07:57:10;99937.66;;;16.38;98.73
72570;BME280;60594;50.204;8.844;2023-07-22T07:59:39;99929.47;;;16.48;91.32
72570;BME280;60594;50.204;8.844;2023-07-22T08:02:06;99930.81;;;16.52;92.52
72570;BME280;60594;50.204;8.844;2023-07-22T08:04:36;99931.50;;;16.62;91.23
72570;BME280;60594;50.204;8.844;2023-07-22T08:07:07;99928.28;;;16.66;90.94
72570;BME280;60594;50.204;8.844;2023-07-22T08:09:35;99926.25;;;16.76;90.49
72570;BME280;60594;50.204;8.844;2023-07-22T08:12:03;99922.38;;;16.87;91.03
72570;BME280;60594;50.204;8.844;2023-07-22T08:14:31;99928.91;;;17.01;89.57
72570;BME280;60594;50.204;8.844;2023-07-22T08:16:57;99924.91;;;17.05;89.72
72570;BME280;60594;50.204;8.844;2023-07-22T08:19:24;99928.22;;;17.15;90.44
72570;BME280;60594;50.204;8.844;2023-07-22T08:21:51;99929.56;;;17.19;87.23
72570;BME280;60594;50.204;8.844;2023-07-22T08:24:18;99926.88;;;17.27;88.50
72570;BME280;60594;50.204;8.844;2023-07-22T08:26:47;99936.94;;;17.33;89.07
72570;BME280;60594;50.204;8.844;2023-07-22T08:29:14;99928.69;;;17.34;87.94
72570;BME280;60594;50.204;8.844;2023-07-22T08:31:41;99931.56;;;17.49;87.97
72570;BME280;60594;50.204;8.844;2023-07-22T08:34:08;99931.50;;;17.65;82.72
72570;BME280;60594;50.204;8.844;2023-07-22T08:36:35;99935.78;;;17.82;81.83
72570;BME280;60594;50.204;8.844;2023-07-22T08:39:02;99933.38;;;17.95;78.41
72570;BME280;60594;50.204;8.844;2023-07-22T08:41:29;99919.84;;;18.03;76.76
72570;BME280;60594;50.204;8.844;2023-07-22T08:43:59;99929.94;;;18.09;78.86
72570;BME280;60594;50.204;8.844;2023-07-22T08:46:29;99932.28;;;18.12;80.31
72570;BME280;60594;50.204;8.844;2023-07-22T08:48:59;99928.69;;;18.19;74.64
72570;BME280;60594;50.204;8.844;2023-07-22T08:51:26;99917.84;;;18.27;78.48
72570;BME280;60594;50.204;8.844;2023-07-22T08:54:02;99920.09;;;18.46;76.98
72570;BME280;60594;50.204;8.844;2023-07-22T08:56:29;99915.91;;;18.66;75.69
72570;BME280;60594;50.204;8.844;2023-07-22T08:58:57;99917.81;;;18.80;76.92
72570;BME280;60594;50.204;8.844;2023-07-22T09:01:25;99918.44;;;19.05;75.23
72570;BME280;60594;50.204;8.844;2023-07-22T09:03:53;99906.41;;;19.22;73.24
72570;BME280;60594;50.204;8.844;2023-07-22T09:06:23;99911.47;;;19.25;74.17
72570;BME280;60594;50.204;8.844;2023-07-22T09:08:50;99904.81;;;19.35;70.23
72570;BME280;60594;50.204;8.844;2023-07-22T09:11:19;99914.50;;;19.22;69.10
72570;BME280;60594;50.204;8.844;2023-07-22T09:13:46;99915.56;;;19.21;68.78
72570;BME280;60594;50.204;8.844;2023-07-22T09:16:14;99923.84;;;19.19;68.97
72570;BME280;60594;50.204;8.844;2023-07-22T09:18:43;99906.19;;;19.31;68.95
72570;BME280;60594;50.204;8.844;2023-07-22T09:21:09;99909.09;;;19.59;64.11
72570;BME280;60594;50.204;8.844;2023-07-22T09:23:38;99917.63;;;19.77;63.22
72570;BME280;60594;50.204;8.844;2023-07-22T09:26:12;99908.06;;;19.60;64.47
72570;BME280;60594;50.204;8.844;2023-07-22T09:28:54;99909.50;;;19.77;66.01
72570;BME280;60594;50.204;8.844;2023-07-22T09:31:22;99901.56;;;19.90;63.23
72570;BME280;60594;50.204;8.844;2023-07-22T09:33:50;99893.91;;;19.93;59.29
72570;BME280;60594;50.204;8.844;2023-07-22T09:36:17;99895.84;;;20.14;58.43
72570;BME280;60594;50.204;8.844;2023-07-22T09:39:03;99891.56;;;20.41;57.77
72570;BME280;60594;50.204;8.844;2023-07-22T09:41:31;99893.75;;;20.52;59.83
72570;BME280;60594;50.204;8.844;2023-07-22T09:44:02;99893.94;;;20.71;59.01
72570;BME280;60594;50.204;8.844;2023-07-22T09:46:32;99888.88;;;20.89;57.73
72570;BME280;60594;50.204;8.844;2023-07-22T09:49:04;99892.63;;;20.88;58.63
72570;BME280;60594;50.204;8.844;2023-07-22T09:51:37;99890.56;;;20.69;59.58
72570;BME280;60594;50.204;8.844;2023-07-22T09:54:07;99893.31;;;20.48;60.23
72570;BME280;60594;50.204;8.844;2023-07-22T09:56:45;99889.41;;;20.36;60.64
72570;BME280;60594;50.204;8.844;2023-07-22T09:59:17;99879.50;;;20.64;59.83
72570;BME280;60594;50.204;8.844;2023-07-22T10:01:46;99879.19;;;21.01;59.11
72570;BME280;60594;50.204;8.844;2023-07-22T10:04:16;99865.94;;;21.13;55.28
72570;BME280;60594;50.204;8.844;2023-07-22T10:06:45;99881.66;;;21.24;55.85
72570;BME280;60594;50.204;8.844;2023-07-22T10:09:12;99871.31;;;21.06;55.29
72570;BME280;60594;50.204;8.844;2023-07-22T10:11:39;99886.56;;;21.41;50.15
72570;BME280;60594;50.204;8.844;2023-07-22T10:14:08;99869.34;;;21.55;52.02
72570;BME280;60594;50.204;8.844;2023-07-22T10:16:37;99875.78;;;21.95;51.85
72570;BME280;60594;50.204;8.844;2023-07-22T10:19:05;99872.34;;;22.27;51.50
72570;BME280;60594;50.204;8.844;2023-07-22T10:21:33;99863.16;;;22.34;51.44
72570;BME280;60594;50.204;8.844;2023-07-22T10:24:04;99858.97;;;22.32;48.79
72570;BME280;60594;50.204;8.844;2023-07-22T10:26:31;99855.94;;;21.88;49.65
72570;BME280;60594;50.204;8.844;2023-07-22T10:28:59;99865.66;;;21.69;50.16
72570;BME280;60594;50.204;8.844;2023-07-22T10:31:31;99871.84;;;21.57;50.06
72570;BME280;60594;50.204;8.844;2023-07-22T10:33:58;99862.38;;;21.46;49.40
72570;BME280;60594;50.204;8.844;2023-07-22T10:36:29;99862.38;;;21.80;50.12
72570;BME280;60594;50.204;8.844;2023-07-22T10:38:59;99851.03;;;22.17;48.65
72570;BME280;60594;50.204;8.844;2023-07-22T10:41:27;99853.09;;;22.15;48.16
72570;BME280;60594;50.204;8.844;2023-07-22T10:43:58;99847.00;;;22.07;47.49
72570;BME280;60594;50.204;8.844;2023-07-22T10:46:36;99851.09;;;21.83;47.64
72570;BME280;60594;50.204;8.844;2023-07-22T10:49:10;99847.25;;;21.58;48.21
72570;BME280;60594;50.204;8.844;2023-07-22T10:51:37;99844.03;;;21.42;49.59
72570;BME280;60594;50.204;8.844;2023-07-22T10:54:12;99847.00;;;21.60;49.02
72570;BME280;60594;50.204;8.844;2023-07-22T10:56:48;99839.44;;;21.83;48.15
72570;BME280;60594;50.204;8.844;2023-07-22T10:59:26;99838.06;;;22.13;48.60
72570;BME280;60594;50.204;8.844;2023-07-22T11:01:53;99828.91;;;22.27;50.33
72570;BME280;60594;50.204;8.844;2023-07-22T11:04:21;99837.03;;;22.46;47.70
72570;BME280;60594;50.204;8.844;2023-07-22T11:06:58;99836.16;;;22.07;47.41
72570;BME280;60594;50.204;8.844;2023-07-22T11:14:31;99826.63;;;22.43;48.36
72570;BME280;60594;50.204;8.844;2023-07-22T11:16:59;99826.19;;;22.46;47.80
72570;BME280;60594;50.204;8.844;2023-07-22T11:19:27;99821.81;;;22.52;48.39
72570;BME280;60594;50.204;8.844;2023-07-22T11:21:54;99818.50;;;22.56;47.73
72570;BME280;60594;50.204;8.844;2023-07-22T11:24:22;99821.00;;;22.58;49.24
72570;BME280;60594;50.204;8.844;2023-07-22T11:26:52;99824.97;;;22.75;49.30
72570;BME280;60594;50.204;8.844;2023-07-22T11:29:20;99818.28;;;22.77;48.63
72570;BME280;60594;50.204;8.844;2023-07-22T11:31:50;99802.63;;;22.60;48.30
72570;BME280;60594;50.204;8.844;2023-07-22T11:34:19;99809.69;;;22.74;50.68
72570;BME280;60594;50.204;8.844;2023-07-22T11:36:48;99807.19;;;22.66;49.06
72570;BME280;60594;50.204;8.844;2023-07-22T11:39:19;99804.69;;;22.64;49.71
72570;BME280;60594;50.204;8.844;2023-07-22T11:41:51;99795.50;;;22.39;48.56
72570;BME280;60594;50.204;8.844;2023-07-22T11:44:20;99797.53;;;22.05;48.35
72570;BME280;60594;50.204;8.844;2023-07-22T11:46:58;99797.81;;;21.69;50.28
72570;BME280;60594;50.204;8.844;2023-07-22T11:49:40;99805.25;;;21.54;50.42
72570;BME280;60594;50.204;8.844;2023-07-22T11:52:15;99803.59;;;21.53;51.28
72570;BME280;60594;50.204;8.844;2023-07-22T11:54:42;99790.69;;;21.62;50.36
72570;BME280;60594;50.204;8.844;2023-07-22T11:57:20;99780.34;;;21.78;50.12
72570;BME280;60594;50.204;8.844;2023-07-22T12:02:19;99774.53;;;21.88;46.70
72570;BME280;60594;50.204;8.844;2023-07-22T12:07:24;99775.38;;;21.88;44.74
72570;BME280;60594;50.204;8.844;2023-07-22T12:09:53;99778.09;;;21.88;45.33
72570;BME280;60594;50.204;8.844;2023-07-22T12:12:40;99777.63;;;21.85;45.44
72570;BME280;60594;50.204;8.844;2023-07-22T12:15:21;99771.78;;;21.81;45.91
72570;BME280;60594;50.204;8.844;2023-07-22T12:17:56;99777.44;;;21.80;45.07
72570;BME280;60594;50.204;8.844;2023-07-22T12:20:28;99765.31;;;21.82;46.49
72570;BME280;60594;50.204;8.844;2023-07-22T12:22:56;99758.88;;;21.90;46.27
72570;BME280;60594;50.204;8.844;2023-07-22T12:25:25;99763.69;;;22.07;45.65
72570;BME280;60594;50.204;8.844;2023-07-22T12:27:51;99757.03;;;22.23;45.59
72570;BME280;60594;50.204;8.844;2023-07-22T12:30:20;99763.06;;;22.31;46.04
72570;BME280;60594;50.204;8.844;2023-07-22T12:32:51;99759.38;;;22.58;47.22
72570;BME280;60594;50.204;8.844;2023-07-22T12:35:18;99752.03;;;22.72;43.94
72570;BME280;60594;50.204;8.844;2023-07-22T12:37:45;99755.78;;;22.64;45.31
72570;BME280;60594;50.204;8.844;2023-07-22T12:40:13;99759.75;;;22.62;43.94
72570;BME280;60594;50.204;8.844;2023-07-22T12:42:40;99752.84;;;22.46;45.15
72570;BME280;60594;50.204;8.844;2023-07-22T12:45:08;99756.81;;;22.37;45.11
72570;BME280;60594;50.204;8.844;2023-07-22T12:47:35;99749.94;;;22.28;44.71
72570;BME280;60594;50.204;8.844;2023-07-22T12:50:04;99748.25;;;22.14;46.68
72570;BME280;60594;50.204;8.844;2023-07-22T12:52:30;99749.94;;;22.09;46.14
72570;BME280;60594;50.204;8.844;2023-07-22T12:54:57;99755.34;;;22.15;45.57
72570;BME280;60594;50.204;8.844;2023-07-22T12:57:24;99750.75;;;22.22;46.41
72570;BME280;60594;50.204;8.844;2023-07-22T12:59:50;99752.84;;;22.33;45.44
72570;BME280;60594;50.204;8.844;2023-07-22T13:02:17;99754.50;;;22.41;46.22
72570;BME280;60594;50.204;8.844;2023-07-22T13:04:44;99751.63;;;22.49;46.26
72570;BME280;60594;50.204;8.844;2023-07-22T13:07:10;99734.91;;;22.32;46.85
72570;BME280;60594;50.204;8.844;2023-07-22T13:09:37;99740.50;;;22.44;46.03
72570;BME280;60594;50.204;8.844;2023-07-22T13:12:04;99746.16;;;22.42;44.61